»·PEaware :: UAL1097 KDFW-KIAH

UAL1097 :: KDFW-KIAH

FLIGHT INFORMATION

Flight Status: Arrived
Operator:
United Airlines
More flights by this operator :: More flights under this callsign
Pilot: Adam Asmar (5112)
Aircraft: BOEING 737-300
(B733)
More flights by this aircraft type
Origin: KDFW Dallas-Ft Worth Intl
United States
Destination: KIAH G Bush Intercontinental/Houst
United States
More flights between these airports :: More routes between these airports
Route: DARTZ6 TORNN GUSHR3
File this flight plan on PilotEdge
Remarks:
Altitude:
(Current/Filed)
2,700ft
Speed:
(Current/Filed)
420kts
Departed: 02-Jun-16 06:13 PM
Arrived: 02-Jun-16 07:06 PM
Distance/Time
Traveled:
194nm/0:53
Distance/Time
To Go:
Arrived

Flight Plot

Page will automatically refresh every two minutes.


Map Options




Map Legend


Flown Route
Filed Route
Departure Airport
Arrival Airport
Navaid (VOR, NDB)
Fix

Horizontal Profiles

Position Reports

Time Latitude Longitude Heading Altitude Ground
Speed
02-Jun-16 17:46 32.893325 -97.037931 198 613ft 0kts
02-Jun-16 17:47 32.893325 -97.037931 198 613ft 0kts
02-Jun-16 17:48 32.893325 -97.037931 198 613ft 0kts
02-Jun-16 17:49 32.893325 -97.037931 198 613ft 0kts
02-Jun-16 17:50 32.893325 -97.037931 198 613ft 0kts
02-Jun-16 17:51 32.893325 -97.037931 198 613ft 0kts
02-Jun-16 17:52 32.893325 -97.037931 198 613ft 0kts
02-Jun-16 17:53 32.893325 -97.037931 198 613ft 0kts
02-Jun-16 17:54 32.893325 -97.037931 198 613ft 0kts
02-Jun-16 17:55 32.893325 -97.037931 198 613ft 0kts
02-Jun-16 17:55 32.893325 -97.037931 198 613ft 0kts
02-Jun-16 17:56 32.893325 -97.037931 198 613ft 0kts
02-Jun-16 17:58 32.893325 -97.037931 198 613ft 0kts
02-Jun-16 17:58 32.893325 -97.037931 198 613ft 0kts
02-Jun-16 17:59 32.893325 -97.037931 198 613ft 0kts
02-Jun-16 18:00 32.893799 -97.037816 157 613ft 0kts
02-Jun-16 18:01 32.893894 -97.038143 68 613ft 0kts
02-Jun-16 18:02 32.893894 -97.038143 68 613ft 0kts
02-Jun-16 18:04 32.893894 -97.038143 68 613ft 0kts
02-Jun-16 18:05 32.893947 -97.037940 75 613ft 3kts
02-Jun-16 18:06 32.893979 -97.034337 89 613ft 13kts
02-Jun-16 18:07 32.890693 -97.033285 180 613ft 16kts
02-Jun-16 18:08 32.885771 -97.033285 180 613ft 17kts
02-Jun-16 18:09 32.882257 -97.032107 180 613ft 15kts
02-Jun-16 18:10 32.879028 -97.030963 88 613ft 12kts
02-Jun-16 18:11 32.886172 -97.030018 0 613ft 99kts
02-Jun-16 18:12 32.929137 -97.027224 7 1767ft 198kts
02-Jun-16 18:13 32.984534 -97.006159 15 3905ft 223kts
02-Jun-16 18:14 33.015544 -96.948413 92 5782ft 267kts
02-Jun-16 18:15 33.006640 -96.861754 114 8598ft 278kts
02-Jun-16 18:16 32.957581 -96.797405 153 10288ft 323kts
02-Jun-16 18:17 32.870651 -96.790980 179 12483ft 349kts
02-Jun-16 18:18 32.777965 -96.792899 179 15042ft 359kts
02-Jun-16 18:19 32.682998 -96.794286 179 17423ft 368kts
02-Jun-16 18:20 32.586418 -96.797749 179 19595ft 377kts
02-Jun-16 18:21 32.483550 -96.801791 179 21678ft 385kts
02-Jun-16 18:22 32.379339 -96.805899 179 23562ft 393kts
02-Jun-16 18:23 32.274065 -96.805988 164 25228ft 397kts
02-Jun-16 18:24 32.176864 -96.768513 161 26672ft 403kts
02-Jun-16 18:25 32.073815 -96.728371 161 26932ft 398kts
02-Jun-16 18:26 31.971468 -96.688633 161 26927ft 399kts
02-Jun-16 18:27 31.868890 -96.648689 160 26932ft 400kts
02-Jun-16 18:28 31.765443 -96.607409 163 26937ft 396kts
02-Jun-16 18:29 31.661805 -96.567416 165 26932ft 401kts
02-Jun-16 18:30 31.557048 -96.527121 165 26935ft 400kts
02-Jun-16 18:31 31.456141 -96.475446 156 26937ft 405kts
02-Jun-16 18:32 31.369426 -96.422302 156 26936ft 404kts
02-Jun-16 18:33 31.277349 -96.366058 156 26937ft 405kts
02-Jun-16 18:34 31.183204 -96.307262 156 25063ft 389kts
02-Jun-16 18:35 31.090524 -96.250752 157 22942ft 371kts
02-Jun-16 18:36 31.002384 -96.197281 157 20940ft 358kts
02-Jun-16 18:37 30.916634 -96.143330 156 19717ft 349kts
02-Jun-16 18:38 30.845021 -96.097506 155 17858ft 375kts
02-Jun-16 18:39 30.753488 -96.038826 154 14855ft 378kts
02-Jun-16 18:40 30.666650 -95.984117 155 13259ft 350kts
02-Jun-16 18:41 30.583007 -95.931156 154 11202ft 342kts
02-Jun-16 18:42 30.504068 -95.880534 154 9923ft 313kts
02-Jun-16 18:43 30.428868 -95.864002 177 9366ft 259kts
02-Jun-16 18:44 30.360350 -95.856247 176 8044ft 253kts
02-Jun-16 18:45 30.293257 -95.848696 175 6757ft 245kts
02-Jun-16 18:46 30.228942 -95.841465 175 5993ft 216kts
02-Jun-16 18:47 30.170951 -95.834978 174 5306ft 222kts
02-Jun-16 18:48 30.112045 -95.828211 174 4366ft 208kts
02-Jun-16 18:49 30.053009 -95.820754 172 3357ft 224kts
02-Jun-16 18:50 30.012965 -95.773604 126 2965ft 214kts
02-Jun-16 18:51 29.992715 -95.712589 85 3006ft 217kts
02-Jun-16 18:52 30.005857 -95.648738 83 3023ft 193kts
02-Jun-16 18:53 30.007508 -95.589119 92 2998ft 188kts
02-Jun-16 18:54 30.006816 -95.529085 91 2944ft 187kts
02-Jun-16 18:55 30.006983 -95.476516 90 2145ft 147kts
02-Jun-16 18:56 30.007100 -95.431406 91 1370ft 144kts
02-Jun-16 18:57 30.007339 -95.386655 89 585ft 135kts
02-Jun-16 18:58 30.007227 -95.347136 94 104ft 98kts
02-Jun-16 18:59 30.007138 -95.520190 90 1745ft 205kts
02-Jun-16 19:00 30.007070 -95.467634 91 1021ft 140kts
02-Jun-16 19:01 30.006560 -95.421943 85 1349ft 147kts
02-Jun-16 19:02 30.007244 -95.377198 94 419ft 131kts
02-Jun-16 19:03 30.007179 -95.341669 92 104ft 50kts
02-Jun-16 19:04 30.005559 -95.335106 91 104ft 16kts
02-Jun-16 19:04 30.004411 -95.330232 124 104ft 21kts
02-Jun-16 19:05 30.000102 -95.325368 178 104ft 20kts
02-Jun-16 19:06 29.993094 -95.325384 179 104ft 23kts
02-Jun-16 19:07 29.990791 -95.328650 269 104ft 19kts
02-Jun-16 19:08 29.990783 -95.335883 267 104ft 13kts
02-Jun-16 19:09 29.989673 -95.338020 269 104ft 3kts
02-Jun-16 19:10 29.989673 -95.338059 269 104ft 0kts
02-Jun-16 19:11 30.001686 -95.326498 130 104ft 24kts
02-Jun-16 19:12 30.007171 -95.355949 89 121ft 125kts
02-Jun-16 19:13 30.007199 -95.345167 90 104ft 78kts
02-Jun-16 19:14 30.007199 -95.346396 90 104ft 87kts

Navigation Log

Ident Type
1. KDFW Airport
2. DARTZ Fix
3. TORNN Fix
4. KIAH Airport